createdAt,value
2018-03-25T00:00:18.236Z,22.70
2018-03-25T00:02:45.880Z,22.17
2018-03-25T00:05:13.508Z,23.93
2018-03-25T00:07:41.105Z,23.67
2018-03-25T00:10:09.155Z,24.03
2018-03-25T00:12:36.751Z,25.20
2018-03-25T00:15:04.378Z,25.40
2018-03-25T00:17:32.002Z,21.90
2018-03-25T00:20:00.070Z,23.60
2018-03-25T00:22:27.672Z,23.47
2018-03-25T00:24:55.272Z,25.30
2018-03-25T00:27:22.906Z,22.63
2018-03-25T00:29:50.508Z,24.00
2018-03-25T00:32:19.920Z,25.07
2018-03-25T00:34:48.144Z,24.57
2018-03-25T00:37:15.804Z,24.17
2018-03-25T00:39:43.443Z,24.80
2018-03-25T00:42:11.035Z,23.90
2018-03-25T00:44:38.672Z,24.90
2018-03-25T00:47:06.272Z,24.23
2018-03-25T00:49:33.890Z,26.63
2018-03-25T00:52:01.799Z,24.57
2018-03-25T00:54:29.491Z,23.10
2018-03-25T00:56:57.091Z,23.23
2018-03-25T00:59:24.677Z,22.93
2018-03-25T01:01:52.315Z,24.77
2018-03-25T01:04:20.004Z,25.13
2018-03-25T01:06:47.877Z,24.53
2018-03-25T01:09:16.414Z,24.53
2018-03-25T01:11:44.021Z,27.17
2018-03-25T01:14:13.026Z,25.00
2018-03-25T01:16:40.674Z,27.13
2018-03-25T01:19:08.403Z,28.73
2018-03-25T01:21:36.369Z,28.17
2018-03-25T01:24:04.101Z,28.40
2018-03-25T01:26:31.697Z,28.10
2018-03-25T01:28:59.413Z,24.50
2018-03-25T01:31:27.241Z,25.23
2018-03-25T01:33:54.876Z,25.80
2018-03-25T01:36:22.546Z,25.90
2018-03-25T01:38:50.171Z,24.50
2018-03-25T01:41:17.778Z,26.30
2018-03-25T01:43:45.440Z,27.07
2018-03-25T01:46:13.031Z,25.50
2018-03-25T01:48:40.701Z,22.97
2018-03-25T01:51:08.493Z,25.50
2018-03-25T01:53:36.213Z,27.17
2018-03-25T01:56:03.889Z,26.73
2018-03-25T01:58:31.494Z,25.13
2018-03-25T02:00:59.091Z,27.03
2018-03-25T02:03:26.725Z,26.50
2018-03-25T02:05:54.363Z,26.63
2018-03-25T02:08:21.980Z,24.83
2018-03-25T02:10:49.616Z,25.10
2018-03-25T02:13:17.251Z,28.70
2018-03-25T02:15:44.842Z,28.90
2018-03-25T02:18:12.496Z,33.07
2018-03-25T02:20:41.078Z,31.90
2018-03-25T02:23:09.058Z,25.13
2018-03-25T02:25:36.650Z,30.27
2018-03-25T02:28:04.242Z,28.97
2018-03-25T02:30:31.908Z,26.80
2018-03-25T02:32:59.531Z,34.00
2018-03-25T02:35:27.135Z,29.00
2018-03-25T02:37:55.120Z,31.30
2018-03-25T02:40:22.739Z,30.50
2018-03-25T02:42:50.346Z,30.60
2018-03-25T02:45:18.000Z,28.10
2018-03-25T02:47:46.028Z,26.93
2018-03-25T02:50:14.038Z,29.63
2018-03-25T02:52:41.714Z,25.93
2018-03-25T02:55:09.450Z,29.97
2018-03-25T02:57:37.269Z,29.43
2018-03-25T03:00:05.034Z,26.90
2018-03-25T03:02:32.756Z,28.50
2018-03-25T03:05:00.346Z,26.63
2018-03-25T03:07:27.980Z,26.23
2018-03-25T03:09:55.622Z,26.60
2018-03-25T03:12:23.214Z,27.50
2018-03-25T03:14:50.895Z,28.17
2018-03-25T03:17:18.524Z,26.93
2018-03-25T03:19:46.132Z,26.83
2018-03-25T03:22:13.822Z,25.90
2018-03-25T03:24:41.433Z,27.20
2018-03-25T03:27:09.022Z,25.93
2018-03-25T03:29:37.156Z,25.47
2018-03-25T03:32:04.832Z,24.30
2018-03-25T03:34:32.606Z,25.13
2018-03-25T03:37:00.222Z,24.53
2018-03-25T03:39:27.963Z,24.87
2018-03-25T03:41:55.715Z,25.30
2018-03-25T03:44:23.316Z,26.77
2018-03-25T03:46:51.359Z,23.77
2018-03-25T03:49:18.972Z,23.13
2018-03-25T03:51:46.567Z,26.83
2018-03-25T03:54:14.232Z,25.87
2018-03-25T03:56:41.982Z,25.67
2018-03-25T03:59:09.574Z,23.60
2018-03-25T04:01:37.205Z,24.57
2018-03-25T04:04:04.914Z,22.77
2018-03-25T04:06:32.547Z,25.80
2018-03-25T04:09:00.150Z,24.40
2018-03-25T04:11:28.149Z,22.60
2018-03-25T04:13:55.928Z,23.67
2018-03-25T04:16:23.602Z,23.53
2018-03-25T04:18:51.273Z,25.40
2018-03-25T04:21:18.945Z,25.30
2018-03-25T04:23:46.696Z,25.23
2018-03-25T04:26:14.404Z,25.20
2018-03-25T04:28:42.184Z,25.77
2018-03-25T04:31:09.854Z,30.20
2018-03-25T04:33:37.533Z,26.10
2018-03-25T04:36:05.134Z,29.13
2018-03-25T04:38:32.886Z,28.27
2018-03-25T04:41:00.665Z,27.20
2018-03-25T04:43:28.259Z,25.23
2018-03-25T04:45:56.096Z,24.30
2018-03-25T04:48:23.898Z,25.43
2018-03-25T04:50:51.571Z,25.90
2018-03-25T04:53:19.239Z,25.90
2018-03-25T04:55:46.924Z,25.97
2018-03-25T04:58:14.805Z,25.03
2018-03-25T05:00:42.472Z,27.10
2018-03-25T05:03:10.254Z,26.63
2018-03-25T05:05:38.037Z,26.23
2018-03-25T05:08:05.695Z,25.03
2018-03-25T05:10:33.477Z,26.50
2018-03-25T05:13:01.226Z,26.37
2018-03-25T05:15:28.893Z,26.30
2018-03-25T05:17:56.616Z,26.17
2018-03-25T05:20:24.290Z,26.07
2018-03-25T05:22:51.874Z,24.73
2018-03-25T05:25:19.608Z,24.57
2018-03-25T05:27:47.312Z,28.30
2018-03-25T05:30:14.986Z,27.80
2018-03-25T05:32:42.664Z,26.47
2018-03-25T05:35:10.393Z,27.53
2018-03-25T05:37:38.227Z,26.87
2018-03-25T05:40:05.827Z,28.07
2018-03-25T05:42:33.562Z,28.40
2018-03-25T05:45:01.355Z,28.23
2018-03-25T05:47:29.023Z,27.73
2018-03-25T05:49:56.810Z,26.40
2018-03-25T05:52:24.996Z,27.73
2018-03-25T05:54:52.663Z,31.07
2018-03-25T05:57:20.248Z,26.37
2018-03-25T05:59:47.919Z,28.47
2018-03-25T06:02:15.593Z,29.20
2018-03-25T06:04:43.372Z,29.63
2018-03-25T06:07:11.041Z,27.07
2018-03-25T06:09:38.779Z,25.33
2018-03-25T06:12:06.445Z,26.97
2018-03-25T06:14:34.168Z,28.80
2018-03-25T06:17:01.750Z,28.53
2018-03-25T06:19:29.431Z,33.00
2018-03-25T06:21:57.100Z,27.50
2018-03-25T06:24:24.886Z,30.57
2018-03-25T06:26:52.763Z,35.83
2018-03-25T06:29:20.422Z,30.23
2018-03-25T06:31:48.214Z,28.57
2018-03-25T06:34:16.472Z,27.67
2018-03-25T06:36:44.136Z,30.90
2018-03-25T06:39:11.751Z,29.30
2018-03-25T06:41:39.803Z,31.07
2018-03-25T06:44:07.498Z,31.60
2018-03-25T06:46:35.291Z,27.53
2018-03-25T06:49:03.171Z,31.87
2018-03-25T06:51:30.955Z,29.23
2018-03-25T06:53:58.677Z,29.00
2018-03-25T06:56:26.505Z,27.80
2018-03-25T06:58:54.178Z,27.17
2018-03-25T07:01:21.959Z,29.13
2018-03-25T07:03:49.840Z,27.53
2018-03-25T07:06:17.432Z,28.03
2018-03-25T07:08:45.190Z,28.27
2018-03-25T07:11:12.850Z,29.50
2018-03-25T07:13:40.642Z,28.57
2018-03-25T07:16:08.422Z,26.83
2018-03-25T07:18:36.199Z,26.50
2018-03-25T07:21:03.873Z,28.10
2018-03-25T07:23:31.653Z,29.37
2018-03-25T07:25:59.436Z,27.57
2018-03-25T07:28:27.159Z,27.10
2018-03-25T07:30:54.874Z,26.67
2018-03-25T07:33:22.617Z,25.23
2018-03-25T07:35:50.444Z,24.43
2018-03-25T07:38:18.116Z,28.73
2018-03-25T07:40:45.784Z,28.30
2018-03-25T07:43:13.781Z,28.30
2018-03-25T07:45:41.499Z,28.97
2018-03-25T07:48:09.229Z,26.50
2018-03-25T07:50:36.901Z,26.60
2018-03-25T07:53:04.989Z,26.27
2018-03-25T07:55:32.716Z,27.03
2018-03-25T07:58:00.430Z,28.30
2018-03-25T08:00:28.629Z,27.40
2018-03-25T08:02:56.221Z,27.17
2018-03-25T08:05:23.810Z,26.47
2018-03-25T08:07:51.444Z,28.37
2018-03-25T08:10:19.273Z,24.17
2018-03-25T08:12:48.028Z,27.10
2018-03-25T08:15:15.677Z,28.90
2018-03-25T08:17:43.482Z,27.53
2018-03-25T08:20:11.156Z,28.70
2018-03-25T08:22:38.818Z,28.13
2018-03-25T08:25:06.509Z,26.03
2018-03-25T08:27:34.562Z,28.50
2018-03-25T08:30:02.373Z,29.03
2018-03-25T08:32:30.047Z,26.87
2018-03-25T08:34:57.782Z,28.83
2018-03-25T08:37:25.388Z,25.90
2018-03-25T08:39:53.416Z,27.27
2018-03-25T08:42:21.164Z,27.70
2018-03-25T08:44:49.242Z,26.70
2018-03-25T08:47:17.016Z,26.67
2018-03-25T08:49:44.801Z,29.60
2018-03-25T08:52:12.531Z,28.10
2018-03-25T08:54:40.182Z,26.70
2018-03-25T08:57:08.148Z,25.70
2018-03-25T08:59:35.811Z,27.27
2018-03-25T09:02:03.584Z,29.63
2018-03-25T09:04:31.256Z,27.50
2018-03-25T09:06:58.937Z,26.70
2018-03-25T09:09:26.562Z,28.87
2018-03-25T09:11:54.281Z,27.97
2018-03-25T09:14:22.169Z,29.60
2018-03-25T09:16:49.949Z,27.87
2018-03-25T09:19:17.725Z,26.57
2018-03-25T09:21:45.416Z,25.90
2018-03-25T09:24:13.047Z,29.60
2018-03-25T09:26:40.753Z,28.93
2018-03-25T09:29:08.402Z,26.90
2018-03-25T09:31:36.053Z,25.33
2018-03-25T09:34:03.707Z,29.30
2018-03-25T09:36:31.316Z,26.13
2018-03-25T09:38:58.915Z,26.40
2018-03-25T09:41:26.579Z,21.83
2018-03-25T09:43:54.194Z,22.03
2018-03-25T09:46:21.808Z,20.60
2018-03-25T09:48:49.448Z,19.60
2018-03-25T09:51:17.098Z,20.00
2018-03-25T09:53:44.701Z,22.00
2018-03-25T09:56:12.351Z,17.93
2018-03-25T09:58:40.090Z,18.10
2018-03-25T10:01:13.335Z,19.10
2018-03-25T10:03:40.989Z,19.97
2018-03-25T10:06:08.625Z,15.37
2018-03-25T10:08:36.299Z,16.60
2018-03-25T10:11:03.938Z,17.13
2018-03-25T10:13:31.710Z,18.53
2018-03-25T10:15:59.376Z,20.13
2018-03-25T10:18:27.064Z,21.77
2018-03-25T10:20:54.650Z,16.07
2018-03-25T10:23:22.244Z,16.53
2018-03-25T10:25:49.980Z,14.30
2018-03-25T10:28:17.725Z,15.57
2018-03-25T10:30:45.736Z,16.60
2018-03-25T10:33:13.525Z,17.67
2018-03-25T10:35:41.197Z,19.00
2018-03-25T10:38:08.902Z,16.17
2018-03-25T10:40:36.640Z,18.43
2018-03-25T10:43:04.251Z,19.30
2018-03-25T10:45:32.003Z,18.30
2018-03-25T10:47:59.780Z,17.27
2018-03-25T10:50:27.375Z,13.50
2018-03-25T10:52:54.993Z,13.90
2018-03-25T10:55:22.695Z,16.43
2018-03-25T10:57:50.483Z,15.27
2018-03-25T11:00:18.262Z,15.63
2018-03-25T11:02:45.851Z,18.87
2018-03-25T11:05:13.511Z,17.07
2018-03-25T11:07:41.167Z,17.87
2018-03-25T11:10:09.269Z,18.00
2018-03-25T11:12:37.048Z,17.37
2018-03-25T11:15:04.719Z,17.67
2018-03-25T11:17:32.499Z,17.13
2018-03-25T11:20:00.103Z,17.37
2018-03-25T11:22:27.815Z,18.40
2018-03-25T11:24:55.684Z,16.90
2018-03-25T11:27:23.512Z,16.10
2018-03-25T11:29:51.291Z,18.27
2018-03-25T11:32:18.881Z,17.03
2018-03-25T11:34:46.636Z,18.27
2018-03-25T11:37:14.422Z,17.20
2018-03-25T11:39:42.195Z,17.90
2018-03-25T11:42:10.075Z,17.07
2018-03-25T11:44:38.261Z,16.43
2018-03-25T11:47:06.037Z,16.70
2018-03-25T11:49:33.814Z,19.30
2018-03-25T11:52:01.479Z,17.73
2018-03-25T11:54:29.071Z,18.53
2018-03-25T11:56:56.844Z,18.47
2018-03-25T11:59:24.728Z,21.33
2018-03-25T12:01:52.327Z,23.20
2018-03-25T12:04:19.983Z,25.00
2018-03-25T12:06:48.061Z,18.27
2018-03-25T12:09:15.730Z,19.80
2018-03-25T12:11:43.515Z,19.60
2018-03-25T12:14:11.177Z,17.87
2018-03-25T12:16:38.815Z,17.20
2018-03-25T12:19:06.433Z,17.70
2018-03-25T12:21:34.108Z,16.93
2018-03-25T12:24:01.704Z,18.50
2018-03-25T12:26:29.356Z,19.17
2018-03-25T12:28:57.093Z,19.17
2018-03-25T12:31:24.703Z,19.47
2018-03-25T12:33:52.384Z,17.47
2018-03-25T12:36:20.167Z,17.90
2018-03-25T12:38:47.758Z,18.60
2018-03-25T12:41:15.782Z,19.73
2018-03-25T12:43:43.383Z,16.87
2018-03-25T12:46:10.973Z,17.00
2018-03-25T12:48:38.847Z,16.37
2018-03-25T12:53:40.550Z,16.13
2018-03-25T12:56:08.333Z,17.17
2018-03-25T12:58:36.045Z,17.17
2018-03-25T13:01:03.882Z,19.90
2018-03-25T13:03:31.470Z,18.37
2018-03-25T13:05:59.119Z,18.67
2018-03-25T13:08:26.710Z,17.90
2018-03-25T13:10:54.483Z,19.67
2018-03-25T13:13:22.564Z,18.00
2018-03-25T13:15:50.325Z,19.00
2018-03-25T13:18:18.079Z,18.03
2018-03-25T13:20:45.870Z,18.30
2018-03-25T13:23:13.682Z,17.03
2018-03-25T13:25:41.868Z,17.70
2018-03-25T13:28:09.546Z,17.13
2018-03-25T13:30:37.208Z,18.67
2018-03-25T13:33:04.954Z,17.87
2018-03-25T13:35:32.776Z,19.47
2018-03-25T13:38:00.512Z,18.93
2018-03-25T13:40:28.328Z,19.83
2018-03-25T13:42:55.997Z,21.07
2018-03-25T13:45:23.738Z,20.17
2018-03-25T13:47:51.738Z,19.80
2018-03-25T13:50:19.544Z,19.80
2018-03-25T13:52:47.222Z,20.20
2018-03-25T13:55:15.103Z,18.83
2018-03-25T13:57:42.819Z,19.67
2018-03-25T14:00:10.439Z,19.67
2018-03-25T14:02:38.227Z,18.03
2018-03-25T14:05:06.106Z,20.27
2018-03-25T14:07:33.836Z,18.53
2018-03-25T14:10:01.629Z,20.97
2018-03-25T14:12:29.439Z,20.30
2018-03-25T14:14:57.220Z,20.10
2018-03-25T14:17:24.830Z,19.63
2018-03-25T14:19:52.980Z,24.50
2018-03-25T14:22:20.578Z,18.67
2018-03-25T14:24:48.304Z,13.57
2018-03-25T14:27:16.111Z,20.37
2018-03-25T14:29:43.889Z,19.53
2018-03-25T14:32:11.728Z,21.53
2018-03-25T14:34:39.440Z,15.60
2018-03-25T14:37:07.219Z,16.00
2018-03-25T14:39:34.890Z,22.13
2018-03-25T14:42:02.773Z,15.20
2018-03-25T14:44:30.450Z,19.10
2018-03-25T14:46:58.174Z,19.80
2018-03-25T14:49:26.007Z,19.30
2018-03-25T14:51:53.783Z,18.80
2018-03-25T14:54:21.449Z,19.40
2018-03-25T14:56:49.341Z,17.70
2018-03-25T14:59:17.119Z,21.20
2018-03-25T15:01:44.788Z,20.30
2018-03-25T15:04:12.520Z,20.60
2018-03-25T15:06:40.140Z,17.57
2018-03-25T15:09:08.232Z,16.90
2018-03-25T15:11:35.901Z,17.97
2018-03-25T15:14:03.736Z,19.37
2018-03-25T15:16:31.459Z,18.27
2018-03-25T15:18:59.046Z,19.37
2018-03-25T15:21:26.915Z,18.27
2018-03-25T15:23:54.502Z,16.83
2018-03-25T15:26:22.100Z,21.63
2018-03-25T15:28:49.945Z,18.10
2018-03-25T15:31:17.612Z,18.80
2018-03-25T15:33:45.296Z,14.57
2018-03-25T15:36:14.270Z,19.50
2018-03-25T15:38:42.025Z,19.03
2018-03-25T15:41:09.751Z,16.90
2018-03-25T15:43:37.419Z,16.30
2018-03-25T15:46:05.058Z,19.53
2018-03-25T15:48:32.731Z,21.77
2018-03-25T15:51:00.393Z,19.67
2018-03-25T15:53:28.024Z,20.93
2018-03-25T15:55:55.805Z,21.17
2018-03-25T15:58:23.584Z,20.67
2018-03-25T16:00:51.359Z,20.93
2018-03-25T16:03:19.141Z,19.67
2018-03-25T16:05:46.812Z,18.57
2018-03-25T16:08:14.489Z,21.60
2018-03-25T16:10:42.219Z,19.30
2018-03-25T16:13:10.353Z,20.60
2018-03-25T16:15:38.020Z,18.67
2018-03-25T16:18:05.685Z,26.60
2018-03-25T16:20:33.684Z,20.17
2018-03-25T16:23:01.294Z,21.40
2018-03-25T16:25:28.991Z,20.67
2018-03-25T16:27:56.686Z,21.03
2018-03-25T16:30:24.496Z,22.37
2018-03-25T16:32:52.217Z,19.53
2018-03-25T16:35:19.863Z,23.10
2018-03-25T16:37:48.033Z,21.97
2018-03-25T16:40:15.770Z,20.87
2018-03-25T16:42:43.363Z,24.57
2018-03-25T16:45:11.100Z,23.70
2018-03-25T16:47:38.941Z,23.20
2018-03-25T16:50:06.720Z,26.40
2018-03-25T16:52:34.391Z,25.37
2018-03-25T16:55:02.340Z,26.40
2018-03-25T16:57:29.947Z,26.33
2018-03-25T16:59:57.729Z,27.90
2018-03-25T17:02:25.913Z,28.17
2018-03-25T17:04:53.634Z,28.57
2018-03-25T17:07:21.264Z,29.20
2018-03-25T17:09:48.940Z,28.17
2018-03-25T17:12:16.714Z,31.30
2018-03-25T17:14:44.388Z,32.83
2018-03-25T17:17:12.275Z,35.90
2018-03-25T17:19:39.940Z,35.80
2018-03-25T17:22:07.621Z,33.70
2018-03-25T17:24:35.247Z,31.60
2018-03-25T17:27:03.077Z,31.10
2018-03-25T17:29:30.857Z,38.13
2018-03-25T17:31:58.633Z,36.17
2018-03-25T17:34:26.411Z,36.37
2018-03-25T17:36:54.088Z,38.07
2018-03-25T17:39:21.915Z,41.00
2018-03-25T17:41:49.640Z,32.20
2018-03-25T17:44:17.214Z,37.80
2018-03-25T17:46:44.889Z,35.50
2018-03-25T17:49:12.666Z,37.70
2018-03-25T17:51:40.398Z,37.93
2018-03-25T17:54:08.019Z,38.27
2018-03-25T17:56:35.610Z,37.53
2018-03-25T17:59:03.362Z,39.37
2018-03-25T18:01:31.148Z,35.33
2018-03-25T18:03:58.925Z,37.90
2018-03-25T18:06:27.112Z,37.97
2018-03-25T18:08:54.840Z,35.07
2018-03-25T18:11:22.568Z,37.83
2018-03-25T18:13:50.449Z,38.80
2018-03-25T18:16:18.123Z,42.97
2018-03-25T18:18:45.902Z,40.27
2018-03-25T18:21:13.577Z,39.10
2018-03-25T18:23:41.260Z,40.30
2018-03-25T18:26:09.018Z,40.33
2018-03-25T18:28:36.775Z,39.63
2018-03-25T18:31:04.540Z,37.73
2018-03-25T18:33:32.156Z,38.33
2018-03-25T18:35:59.833Z,39.27
2018-03-25T18:38:27.719Z,41.17
2018-03-25T18:40:55.492Z,40.70
2018-03-25T18:43:23.220Z,39.77
2018-03-25T18:45:50.950Z,39.70
2018-03-25T18:48:18.720Z,39.77
2018-03-25T18:50:46.398Z,40.53
2018-03-25T18:53:14.178Z,42.87
2018-03-25T18:55:42.139Z,41.60
2018-03-25T18:58:09.822Z,43.50
2018-03-25T19:00:37.615Z,41.80
2018-03-25T19:03:05.390Z,42.63
2018-03-25T19:05:33.122Z,43.60
2018-03-25T19:08:00.841Z,44.87
2018-03-25T19:10:28.604Z,45.50
2018-03-25T19:12:59.134Z,38.10
2018-03-25T19:15:27.144Z,34.10
2018-03-25T19:17:54.752Z,39.63
2018-03-25T19:20:22.425Z,36.30
2018-03-25T19:22:50.175Z,39.17
2018-03-25T19:25:17.902Z,39.63
2018-03-25T19:27:45.573Z,34.03
2018-03-25T19:30:13.306Z,32.60
2018-03-25T19:32:41.025Z,39.20
2018-03-25T19:35:08.655Z,33.70
2018-03-25T19:37:36.433Z,34.27
2018-03-25T19:40:04.314Z,32.73
2018-03-25T19:42:32.091Z,33.53
2018-03-25T19:44:59.835Z,25.80
2018-03-25T19:47:27.545Z,30.17
2018-03-25T19:49:55.180Z,31.27
2018-03-25T19:52:22.892Z,31.20
2018-03-25T20:08:10.292Z,32.03
2018-03-25T20:10:37.966Z,34.27
2018-03-25T20:13:05.635Z,33.93
2018-03-25T20:15:33.315Z,32.33
2018-03-25T20:18:01.098Z,33.00
2018-03-25T20:20:28.880Z,33.20
2018-03-25T20:22:56.537Z,34.07
2018-03-25T20:25:24.219Z,33.97
2018-03-25T20:27:52.007Z,31.33
2018-03-25T20:30:19.786Z,34.10
2018-03-25T20:32:47.769Z,34.03
2018-03-25T20:35:15.444Z,28.00
2018-03-25T20:37:43.223Z,37.43
2018-03-25T20:40:10.998Z,36.87
2018-03-25T20:42:38.662Z,33.97
2018-03-25T20:45:06.452Z,35.30
2018-03-25T20:47:34.125Z,35.57
2018-03-25T20:50:02.013Z,35.77
2018-03-25T20:52:29.675Z,36.63
2018-03-25T20:54:57.346Z,40.13
2018-03-25T20:57:24.998Z,38.30
2018-03-25T20:59:52.608Z,41.03
2018-03-25T21:02:20.230Z,40.30
2018-03-25T21:04:47.922Z,40.37
2018-03-25T21:07:15.627Z,38.10
2018-03-25T21:09:43.415Z,39.97
2018-03-25T21:12:11.087Z,39.00
2018-03-25T21:14:38.867Z,39.03
2018-03-25T21:17:06.644Z,39.27
2018-03-25T21:19:34.316Z,40.97
2018-03-25T21:22:02.099Z,40.17
2018-03-25T21:24:29.927Z,41.10
2018-03-25T21:26:57.759Z,40.00
2018-03-25T21:29:25.538Z,41.30
2018-03-25T21:31:53.217Z,37.83
2018-03-25T21:34:20.879Z,40.17
2018-03-25T21:36:48.829Z,41.13
2018-03-25T21:39:16.436Z,41.40
2018-03-25T21:41:44.075Z,42.97
2018-03-25T21:44:11.792Z,42.20
2018-03-25T21:46:39.866Z,42.20
2018-03-25T21:49:07.657Z,39.70
2018-03-25T21:51:35.264Z,41.37
2018-03-25T21:54:02.899Z,43.33
2018-03-25T21:56:30.685Z,41.80
2018-03-25T21:58:58.278Z,44.77
2018-03-25T22:01:26.033Z,40.00
2018-03-25T22:03:53.791Z,43.63
2018-03-25T22:06:21.557Z,43.30
2018-03-25T22:08:49.569Z,38.00
2018-03-25T22:11:17.154Z,44.63
2018-03-25T22:13:44.747Z,42.80
2018-03-25T22:16:12.500Z,43.80
2018-03-25T22:18:52.054Z,39.43
2018-03-25T22:21:19.732Z,40.43
2018-03-25T22:23:47.403Z,41.63
2018-03-25T22:26:15.071Z,44.40
2018-03-25T22:28:42.742Z,42.63
2018-03-25T22:31:10.430Z,41.40
2018-03-25T22:33:38.617Z,41.20
2018-03-25T22:36:06.293Z,42.93
2018-03-25T22:38:34.018Z,41.97
2018-03-25T22:41:01.750Z,40.50
2018-03-25T22:43:29.525Z,41.60
2018-03-25T22:45:57.190Z,43.20
2018-03-25T22:48:24.981Z,44.63
2018-03-25T22:50:52.761Z,43.40
2018-03-25T22:53:20.495Z,42.40
2018-03-25T22:55:48.211Z,41.80
2018-03-25T22:58:15.878Z,43.40
2018-03-25T23:00:43.768Z,43.87
2018-03-25T23:03:11.437Z,45.30
2018-03-25T23:05:39.220Z,45.40
2018-03-25T23:08:06.945Z,50.30
2018-03-25T23:10:35.082Z,44.00
2018-03-25T23:13:02.864Z,47.80
2018-03-25T23:15:30.531Z,48.67
2018-03-25T23:17:58.190Z,45.97
2018-03-25T23:20:25.990Z,50.13
2018-03-25T23:22:53.666Z,55.60
2018-03-25T23:25:21.289Z,51.60
2018-03-25T23:27:49.007Z,54.03
2018-03-25T23:30:16.598Z,52.77
2018-03-25T23:32:44.207Z,53.30
2018-03-25T23:35:12.400Z,53.10
2018-03-25T23:37:40.230Z,49.67
2018-03-25T23:40:08.008Z,49.97
2018-03-25T23:42:35.785Z,53.23
2018-03-25T23:45:03.449Z,54.50
2018-03-25T23:47:31.126Z,56.40
2018-03-25T23:49:58.816Z,60.53
2018-03-25T23:52:26.489Z,59.83
2018-03-25T23:54:54.171Z,64.57
2018-03-25T23:57:22.046Z,63.47
2018-03-25T23:59:49.722Z,62.07
